Time;durP1;ratioP1;P1;durP2;ratioP2;P2;SDS_P1;SDS_P2;PMS_P1;PMS_P2;Temp;Humidity;BMP_temperature;BMP_pressure;BME280_temperature;BME280_humidity;BME280_pressure;Samples;Min_cycle;Max_cycle;Signal;HPM_P1;HPM_P2
2023/07/12 00:01:29;;;;;;;2.13;0.93;;;;;;;;;;5012660;28;20259;-81
2023/07/12 00:03:58;;;;;;;2.77;1.53;;;;;;;;;;5012430;28;20261;-81
2023/07/12 00:06:31;;;;;;;9.13;2.40;;;;;;;;;;5012349;28;20244;-81
2023/07/12 00:08:59;;;;;;;6.50;2.83;;;;;;;;;;5011851;28;20209;-81
2023/07/12 00:11:31;;;;;;;6.57;2.43;;;;;;;;;;5012315;28;20226;-81
2023/07/12 00:14:01;;;;;;;0.90;0.90;;;;;;;;;;5012322;28;20203;-81
2023/07/12 00:16:34;;;;;;;5.37;1.50;;;;;;;;;;5011494;28;20257;-80
2023/07/12 00:19:03;;;;;;;5.00;1.70;;;;;;;;;;5012513;28;20284;-81
2023/07/12 00:21:32;;;;;;;4.13;1.77;;;;;;;;;;5011951;28;20207;-81
2023/07/12 00:24:01;;;;;;;2.13;1.10;;;;;;;;;;5012104;28;20209;-80
2023/07/12 00:26:31;;;;;;;2.47;1.37;;;;;;;;;;5012310;28;20211;-81
2023/07/12 00:29:00;;;;;;;3.63;2.03;;;;;;;;;;5011932;28;20227;-80
2023/07/12 00:31:34;;;;;;;2.33;1.23;;;;;;;;;;5011645;28;20228;-81
2023/07/12 00:34:02;;;;;;;4.57;2.47;;;;;;;;;;5011332;28;20208;-81
2023/07/12 00:36:32;;;;;;;8.03;2.27;;;;;;;;;;5011753;28;20229;-81
2023/07/12 00:39:01;;;;;;;2.53;2.00;;;;;;;;;;5011005;28;20202;-81
2023/07/12 00:41:33;;;;;;;6.77;2.43;;;;;;;;;;5011968;28;20198;-81
2023/07/12 00:44:03;;;;;;;7.47;2.83;;;;;;;;;;5011865;28;20279;-81
2023/07/12 00:46:32;;;;;;;5.83;1.90;;;;;;;;;;5012216;28;20331;-81
2023/07/12 00:49:03;;;;;;;2.30;2.03;;;;;;;;;;5011793;28;20210;-81
2023/07/12 00:51:41;;;;;;;4.17;2.23;;;;;;;;;;5011691;28;20215;-81
2023/07/12 00:54:11;;;;;;;4.03;1.60;;;;;;;;;;5011848;28;20200;-81
2023/07/12 00:56:40;;;;;;;3.53;2.07;;;;;;;;;;5011585;28;20225;-81
2023/07/12 00:59:10;;;;;;;3.27;1.77;;;;;;;;;;5011285;28;20218;-81
2023/07/12 01:01:39;;;;;;;5.87;1.97;;;;;;;;;;5011831;28;20205;-81
2023/07/12 01:04:10;;;;;;;9.23;2.43;;;;;;;;;;5011953;28;20233;-81
2023/07/12 01:06:38;;;;;;;2.30;2.00;;;;;;;;;;5012272;28;20211;-81
2023/07/12 01:09:11;;;;;;;5.60;1.47;;;;;;;;;;5011400;28;20202;-81
2023/07/12 01:11:40;;;;;;;6.77;2.60;;;;;;;;;;5011644;28;20260;-81
2023/07/12 01:14:11;;;;;;;2.90;1.90;;;;;;;;;;5012122;28;20208;-81
2023/07/12 01:16:40;;;;;;;1.80;1.37;;;;;;;;;;5010666;28;20280;-81
2023/07/12 01:19:10;;;;;;;1.83;1.33;;;;;;;;;;5011680;28;20297;-81
2023/07/12 01:21:43;;;;;;;3.50;2.53;;;;;;;;;;5011397;28;20202;-81
2023/07/12 01:24:11;;;;;;;3.40;2.17;;;;;;;;;;5011295;28;20234;-82
2023/07/12 01:26:42;;;;;;;6.27;2.90;;;;;;;;;;5011387;28;20192;-82
2023/07/12 01:29:10;;;;;;;10.63;4.43;;;;;;;;;;5011414;28;20215;-82
2023/07/12 01:31:39;;;;;;;5.80;1.30;;;;;;;;;;5011466;28;20239;-82
2023/07/12 01:34:09;;;;;;;3.47;1.77;;;;;;;;;;5011013;28;20209;-82
2023/07/12 01:36:37;;;;;;;12.67;3.03;;;;;;;;;;5011197;28;20226;-82
2023/07/12 01:39:08;;;;;;;6.87;2.83;;;;;;;;;;5011424;28;20202;-82
2023/07/12 01:41:37;;;;;;;9.93;2.83;;;;;;;;;;5011340;28;20198;-82
2023/07/12 01:44:05;;;;;;;9.63;2.73;;;;;;;;;;5011144;28;20212;-82
2023/07/12 01:46:34;;;;;;;7.80;2.03;;;;;;;;;;5011498;28;20200;-82
2023/07/12 01:49:02;;;;;;;2.13;0.97;;;;;;;;;;5011585;28;20222;-82
2023/07/12 01:51:31;;;;;;;3.17;1.67;;;;;;;;;;5014204;28;20202;-82
2023/07/12 01:53:59;;;;;;;8.93;2.07;;;;;;;;;;5015017;28;20199;-82
2023/07/12 01:56:29;;;;;;;4.63;3.00;;;;;;;;;;5014994;28;20227;-82
2023/07/12 01:58:58;;;;;;;22.13;3.37;;;;;;;;;;5014397;28;20209;-81
2023/07/12 02:01:26;;;;;;;5.30;3.60;;;;;;;;;;5014349;28;20212;-81
2023/07/12 02:03:54;;;;;;;2.47;1.63;;;;;;;;;;5014826;28;20274;-81
2023/07/12 02:06:23;;;;;;;5.40;2.87;;;;;;;;;;5014651;28;20253;-82
2023/07/12 02:08:51;;;;;;;5.53;3.13;;;;;;;;;;5014138;28;20207;-82
2023/07/12 02:11:20;;;;;;;1.57;1.50;;;;;;;;;;5014558;28;20201;-82
2023/07/12 02:13:53;;;;;;;4.90;2.80;;;;;;;;;;5014328;28;20272;-82
2023/07/12 02:16:21;;;;;;;12.80;4.80;;;;;;;;;;5013950;28;20231;-82
2023/07/12 02:18:50;;;;;;;6.00;2.17;;;;;;;;;;5013824;28;20300;-82
2023/07/12 02:21:18;;;;;;;1.30;1.20;;;;;;;;;;5014630;28;20231;-82
2023/07/12 02:23:47;;;;;;;2.97;2.17;;;;;;;;;;5014395;28;20228;-82
2023/07/12 02:26:15;;;;;;;8.47;3.67;;;;;;;;;;5013656;28;20206;-82
2023/07/12 02:28:44;;;;;;;5.37;2.13;;;;;;;;;;5013821;28;20217;-82
2023/07/12 02:31:20;;;;;;;2.00;1.90;;;;;;;;;;5013853;28;20239;-82
2023/07/12 02:33:49;;;;;;;6.57;3.83;;;;;;;;;;5013790;28;20305;-82
2023/07/12 02:36:18;;;;;;;7.67;4.07;;;;;;;;;;5013713;28;20234;-82
2023/07/12 02:38:47;;;;;;;4.80;2.37;;;;;;;;;;5013657;28;20199;-82
2023/07/12 02:41:16;;;;;;;3.77;2.03;;;;;;;;;;5014172;28;20251;-82
2023/07/12 02:43:45;;;;;;;5.37;2.20;;;;;;;;;;5013472;28;20212;-82
2023/07/12 02:46:13;;;;;;;4.67;2.97;;;;;;;;;;5013923;28;20193;-82
2023/07/12 02:48:46;;;;;;;4.13;3.73;;;;;;;;;;5013943;28;20213;-82
2023/07/12 02:51:14;;;;;;;3.23;2.27;;;;;;;;;;5013515;28;20210;-81
2023/07/12 02:53:43;;;;;;;8.70;2.20;;;;;;;;;;5013422;28;20199;-81
2023/07/12 02:56:13;;;;;;;5.80;2.87;;;;;;;;;;5013476;28;20286;-81
2023/07/12 02:58:41;;;;;;;6.13;1.70;;;;;;;;;;5013687;28;20205;-82
2023/07/12 03:01:09;;;;;;;3.83;2.27;;;;;;;;;;5011974;28;20305;-82
2023/07/12 03:03:38;;;;;;;4.20;0.87;;;;;;;;;;5013667;28;20267;-81
2023/07/12 03:06:11;;;;;;;13.40;3.20;;;;;;;;;;5013230;28;20190;-81
2023/07/12 03:08:39;;;;;;;4.80;1.57;;;;;;;;;;5013018;28;20256;-81
2023/07/12 03:11:09;;;;;;;8.53;2.90;;;;;;;;;;5013520;28;20201;-80
2023/07/12 03:13:38;;;;;;;4.23;1.60;;;;;;;;;;5013681;28;20204;-80
2023/07/12 03:16:07;;;;;;;5.23;3.03;;;;;;;;;;5012878;28;20213;-80
2023/07/12 03:18:35;;;;;;;5.97;3.10;;;;;;;;;;5012899;28;20211;-80
2023/07/12 03:21:05;;;;;;;4.73;1.70;;;;;;;;;;5013007;28;20295;-80
2023/07/12 03:23:35;;;;;;;4.73;2.30;;;;;;;;;;5013246;28;20207;-80
2023/07/12 03:26:04;;;;;;;7.73;2.27;;;;;;;;;;5012681;28;20217;-80
2023/07/12 03:28:33;;;;;;;3.63;1.60;;;;;;;;;;5012337;28;20232;-80
2023/07/12 03:31:02;;;;;;;8.73;3.33;;;;;;;;;;5012989;28;20242;-80
2023/07/12 03:33:31;;;;;;;3.03;2.03;;;;;;;;;;5013415;28;20267;-80
2023/07/12 03:36:00;;;;;;;3.40;1.93;;;;;;;;;;5012464;28;20205;-81
2023/07/12 03:38:30;;;;;;;11.57;5.33;;;;;;;;;;5012602;28;20220;-81
2023/07/12 03:41:02;;;;;;;9.33;3.67;;;;;;;;;;5013340;28;20267;-80
2023/07/12 03:43:31;;;;;;;13.23;3.50;;;;;;;;;;5012278;28;20196;-80
2023/07/12 03:46:00;;;;;;;2.93;1.70;;;;;;;;;;5012608;28;20216;-80
2023/07/12 03:48:28;;;;;;;2.17;1.23;;;;;;;;;;5012780;28;20208;-80
2023/07/12 03:50:57;;;;;;;11.23;2.90;;;;;;;;;;5012798;28;20240;-80
2023/07/12 03:53:26;;;;;;;5.40;2.50;;;;;;;;;;5012967;28;20207;-80
2023/07/12 03:55:58;;;;;;;10.83;2.87;;;;;;;;;;5012575;28;20201;-80
2023/07/12 03:58:29;;;;;;;4.47;1.70;;;;;;;;;;5012154;28;20253;-80
2023/07/12 04:00:57;;;;;;;4.00;2.17;;;;;;;;;;5012164;28;20198;-80
2023/07/12 04:03:26;;;;;;;5.27;2.47;;;;;;;;;;5012608;28;20224;-81
2023/07/12 04:05:54;;;;;;;5.23;1.77;;;;;;;;;;5012527;28;20202;-81
2023/07/12 04:08:23;;;;;;;3.17;1.90;;;;;;;;;;5012122;28;20201;-80
2023/07/12 04:10:52;;;;;;;0.53;0.53;;;;;;;;;;5011857;28;20199;-81
2023/07/12 04:13:21;;;;;;;4.60;1.07;;;;;;;;;;5012241;28;20262;-81
2023/07/12 04:15:52;;;;;;;4.90;3.17;;;;;;;;;;5012250;28;20306;-81
2023/07/12 04:18:20;;;;;;;7.50;2.13;;;;;;;;;;5011566;28;20255;-81
2023/07/12 04:20:49;;;;;;;1.43;0.73;;;;;;;;;;5011893;28;20201;-81
2023/07/12 04:23:17;;;;;;;8.47;2.73;;;;;;;;;;5012124;28;20274;-81
2023/07/12 04:25:46;;;;;;;9.00;1.90;;;;;;;;;;5011977;28;20207;-81
2023/07/12 04:28:14;;;;;;;4.47;2.60;;;;;;;;;;5011636;28;20217;-81
2023/07/12 04:30:43;;;;;;;7.40;3.30;;;;;;;;;;5012511;28;20244;-81
2023/07/12 04:33:12;;;;;;;6.20;3.27;;;;;;;;;;5012054;28;20195;-81
2023/07/12 04:35:41;;;;;;;4.87;3.07;;;;;;;;;;5011666;28;20301;-81
2023/07/12 04:38:10;;;;;;;7.53;3.27;;;;;;;;;;5011870;28;20229;-81
2023/07/12 04:40:38;;;;;;;3.67;2.63;;;;;;;;;;5012036;28;20200;-81
2023/07/12 04:43:06;;;;;;;8.17;4.53;;;;;;;;;;5012221;28;20216;-81
2023/07/12 04:45:36;;;;;;;6.00;4.77;;;;;;;;;;5011790;28;20205;-81
2023/07/12 04:48:04;;;;;;;11.30;5.57;;;;;;;;;;5011430;28;20277;-81
2023/07/12 04:50:34;;;;;;;12.73;6.20;;;;;;;;;;5011849;28;20210;-81
2023/07/12 04:53:04;;;;;;;4.93;2.60;;;;;;;;;;5011263;28;20214;-81
2023/07/12 04:55:32;;;;;;;3.20;1.67;;;;;;;;;;5011752;28;20197;-81
2023/07/12 04:58:01;;;;;;;6.30;2.13;;;;;;;;;;5012103;28;20227;-81
2023/07/12 05:00:29;;;;;;;1.77;1.67;;;;;;;;;;5011590;28;20204;-81
2023/07/12 05:02:57;;;;;;;11.73;4.97;;;;;;;;;;5011544;28;20305;-80
2023/07/12 05:05:26;;;;;;;2.80;1.83;;;;;;;;;;5011657;28;20203;-80
2023/07/12 05:07:56;;;;;;;2.67;1.37;;;;;;;;;;5011792;28;20197;-81
2023/07/12 05:10:24;;;;;;;5.40;3.17;;;;;;;;;;5011466;28;20304;-81
2023/07/12 05:12:53;;;;;;;4.30;3.47;;;;;;;;;;5012064;28;20210;-81
2023/07/12 05:15:21;;;;;;;8.07;3.73;;;;;;;;;;5011824;28;20207;-81
2023/07/12 05:17:50;;;;;;;7.10;3.93;;;;;;;;;;5011136;28;20220;-81
2023/07/12 05:20:19;;;;;;;12.60;6.50;;;;;;;;;;5011498;28;20301;-81
2023/07/12 05:22:48;;;;;;;5.57;3.33;;;;;;;;;;5011704;28;20211;-81
2023/07/12 05:25:18;;;;;;;6.00;4.20;;;;;;;;;;5013476;28;20205;-80
2023/07/12 05:27:46;;;;;;;6.93;2.50;;;;;;;;;;5014282;28;20208;-81
2023/07/12 05:30:17;;;;;;;8.60;3.43;;;;;;;;;;5014680;28;20213;-80
2023/07/12 05:32:46;;;;;;;10.27;2.43;;;;;;;;;;5015344;28;20212;-81
2023/07/12 05:35:14;;;;;;;7.53;4.20;;;;;;;;;;5015131;28;20220;-81
2023/07/12 05:37:43;;;;;;;10.50;3.70;;;;;;;;;;5015022;28;20221;-81
2023/07/12 05:40:12;;;;;;;5.67;1.87;;;;;;;;;;5015096;28;20216;-80
2023/07/12 05:42:42;;;;;;;2.83;0.83;;;;;;;;;;5014913;28;20236;-80
2023/07/12 05:45:14;;;;;;;1.70;1.00;;;;;;;;;;5014716;28;20304;-77
2023/07/12 05:47:45;;;;;;;13.53;3.73;;;;;;;;;;5014935;28;20201;-80
2023/07/12 05:50:15;;;;;;;7.13;2.00;;;;;;;;;;5014843;28;20300;-80
2023/07/12 05:52:44;;;;;;;5.53;1.57;;;;;;;;;;5014567;28;20215;-80
2023/07/12 05:55:18;;;;;;;21.40;3.80;;;;;;;;;;5014551;28;20210;-80
2023/07/12 05:57:49;;;;;;;7.73;2.73;;;;;;;;;;5014939;28;20225;-80
2023/07/12 06:00:18;;;;;;;5.57;2.50;;;;;;;;;;5015157;28;20225;-80
2023/07/12 06:02:47;;;;;;;7.07;3.03;;;;;;;;;;5014135;28;20210;-80
2023/07/12 06:05:16;;;;;;;1.30;0.97;;;;;;;;;;5014769;28;20203;-80
2023/07/12 06:07:45;;;;;;;2.87;1.87;;;;;;;;;;5014536;28;20221;-80
2023/07/12 06:10:15;;;;;;;7.13;2.47;;;;;;;;;;5014641;28;20207;-80
2023/07/12 06:12:44;;;;;;;4.30;2.30;;;;;;;;;;5014471;28;20253;-81
2023/07/12 06:15:14;;;;;;;7.60;3.07;;;;;;;;;;5014526;28;20201;-82
2023/07/12 06:17:43;;;;;;;12.17;3.80;;;;;;;;;;5013913;28;20199;-81
2023/07/12 06:20:12;;;;;;;8.50;3.00;;;;;;;;;;5013859;28;20210;-81
2023/07/12 06:22:40;;;;;;;4.73;1.93;;;;;;;;;;5014464;28;20203;-80
2023/07/12 06:25:10;;;;;;;5.00;2.70;;;;;;;;;;5014134;28;20226;-80
2023/07/12 06:27:38;;;;;;;6.03;2.00;;;;;;;;;;5013874;28;20223;-79
2023/07/12 06:30:07;;;;;;;6.73;2.90;;;;;;;;;;5014025;28;20253;-80
2023/07/12 06:32:37;;;;;;;13.63;4.80;;;;;;;;;;5014126;28;20232;-80
2023/07/12 06:35:06;;;;;;;9.10;3.37;;;;;;;;;;5013966;28;20213;-80
2023/07/12 06:37:34;;;;;;;21.30;2.83;;;;;;;;;;5013117;28;20201;-80
2023/07/12 06:40:05;;;;;;;7.97;3.63;;;;;;;;;;5004922;28;20217;-81
2023/07/12 06:42:33;;;;;;;7.90;2.93;;;;;;;;;;5003449;28;20198;-80
2023/07/12 06:45:02;;;;;;;2.00;1.67;;;;;;;;;;5011689;28;20206;-81
2023/07/12 06:47:32;;;;;;;7.30;3.07;;;;;;;;;;5011885;28;20202;-81
2023/07/12 06:50:02;;;;;;;14.43;3.90;;;;;;;;;;5013329;28;20198;-81
2023/07/12 06:52:30;;;;;;;6.23;2.30;;;;;;;;;;5013669;28;20197;-81
2023/07/12 06:54:59;;;;;;;3.53;1.83;;;;;;;;;;5012391;28;20199;-82
2023/07/12 06:57:28;;;;;;;10.33;3.23;;;;;;;;;;5018558;28;20293;-82
2023/07/12 06:59:56;;;;;;;3.33;1.73;;;;;;;;;;5013128;28;20253;-81
2023/07/12 07:02:25;;;;;;;5.33;1.20;;;;;;;;;;5009278;28;20209;-81
2023/07/12 07:04:54;;;;;;;5.27;3.07;;;;;;;;;;5015378;28;20210;-81
2023/07/12 07:07:26;;;;;;;5.70;2.00;;;;;;;;;;5011751;28;20210;-81
2023/07/12 07:09:55;;;;;;;5.77;3.00;;;;;;;;;;5020659;28;20216;-82
2023/07/12 07:12:24;;;;;;;9.57;2.23;;;;;;;;;;5012495;28;20216;-81
2023/07/12 07:14:56;;;;;;;4.90;2.50;;;;;;;;;;5016908;28;20205;-82
2023/07/12 07:17:25;;;;;;;11.47;4.83;;;;;;;;;;5009976;28;20203;-81
2023/07/12 07:19:54;;;;;;;7.87;4.00;;;;;;;;;;5015645;28;20209;-82
2023/07/12 07:22:22;;;;;;;6.30;3.03;;;;;;;;;;5011984;28;20211;-82
2023/07/12 07:24:55;;;;;;;5.27;2.30;;;;;;;;;;5013814;28;20215;-80
2023/07/12 07:27:23;;;;;;;2.90;1.70;;;;;;;;;;5006991;28;20240;-82
2023/07/12 07:29:52;;;;;;;9.77;2.57;;;;;;;;;;5014206;28;20197;-82
2023/07/12 07:32:21;;;;;;;4.83;2.17;;;;;;;;;;5009711;28;20237;-81
2023/07/12 07:34:50;;;;;;;9.87;3.23;;;;;;;;;;5013612;28;20204;-81
2023/07/12 07:37:19;;;;;;;4.03;1.93;;;;;;;;;;5009970;28;20242;-82
2023/07/12 07:39:47;;;;;;;3.17;2.17;;;;;;;;;;5009762;28;20234;-81
2023/07/12 07:42:17;;;;;;;4.73;1.70;;;;;;;;;;5012221;28;20234;-81
2023/07/12 07:44:46;;;;;;;6.60;2.30;;;;;;;;;;5011957;28;20201;-81
2023/07/12 07:47:14;;;;;;;8.87;2.70;;;;;;;;;;5011005;28;20201;-82
2023/07/12 07:49:43;;;;;;;5.13;2.67;;;;;;;;;;5012319;28;20300;-81
2023/07/12 07:52:12;;;;;;;4.20;1.53;;;;;;;;;;5011673;28;20205;-82
2023/07/12 07:54:40;;;;;;;3.57;2.00;;;;;;;;;;5009603;28;20204;-82
2023/07/12 07:57:11;;;;;;;2.57;2.37;;;;;;;;;;5010088;28;20210;-81
2023/07/12 07:59:41;;;;;;;6.10;2.67;;;;;;;;;;5013230;28;20223;-81
2023/07/12 08:02:14;;;;;;;5.27;2.63;;;;;;;;;;5011694;28;20233;-80
2023/07/12 08:04:43;;;;;;;1.63;1.53;;;;;;;;;;5011501;28;20208;-80
2023/07/12 08:07:12;;;;;;;7.63;5.93;;;;;;;;;;5012115;28;20261;-79
2023/07/12 08:09:40;;;;;;;7.33;3.77;;;;;;;;;;5011823;28;20195;-80
2023/07/12 08:12:10;;;;;;;8.63;3.57;;;;;;;;;;5011550;28;20206;-79
2023/07/12 08:14:38;;;;;;;5.07;2.73;;;;;;;;;;5011493;28;20283;-79
2023/07/12 08:17:12;;;;;;;12.03;2.97;;;;;;;;;;5011702;28;20213;-79
2023/07/12 08:19:40;;;;;;;3.60;2.50;;;;;;;;;;5011494;28;20218;-81
2023/07/12 08:22:09;;;;;;;3.33;2.30;;;;;;;;;;5011574;28;20267;-79
2023/07/12 08:24:37;;;;;;;8.17;4.37;;;;;;;;;;5011676;28;20210;-79
2023/07/12 08:27:09;;;;;;;2.50;1.93;;;;;;;;;;5011740;28;20206;-79
2023/07/12 08:29:44;;;;;;;0.57;0.57;;;;;;;;;;5011159;28;20202;-80
2023/07/12 08:32:14;;;;;;;8.47;2.73;;;;;;;;;;5011197;28;20236;-80
2023/07/12 08:34:42;;;;;;;2.60;1.70;;;;;;;;;;5007600;28;20293;-80
2023/07/12 08:37:11;;;;;;;3.13;2.17;;;;;;;;;;5010733;28;20207;-80
2023/07/12 08:39:40;;;;;;;4.13;2.00;;;;;;;;;;5010888;28;20225;-80
2023/07/12 08:42:12;;;;;;;6.50;3.17;;;;;;;;;;4995302;28;20204;-81
2023/07/12 08:44:41;;;;;;;5.73;3.80;;;;;;;;;;5011398;28;20214;-81
2023/07/12 08:47:14;;;;;;;4.77;1.53;;;;;;;;;;5010829;28;20229;-81
2023/07/12 08:49:44;;;;;;;2.40;2.00;;;;;;;;;;5011461;28;20586;-81
2023/07/12 08:52:17;;;;;;;2.23;1.33;;;;;;;;;;5010779;28;20206;-82
2023/07/12 08:54:45;;;;;;;4.47;2.40;;;;;;;;;;5014386;28;20216;-82
2023/07/12 08:57:18;;;;;;;7.17;2.20;;;;;;;;;;5010448;28;20246;-83
2023/07/12 08:59:49;;;;;;;5.53;3.03;;;;;;;;;;5012424;28;20251;-81
2023/07/12 09:02:22;;;;;;;3.27;1.73;;;;;;;;;;5015420;28;20216;-81
2023/07/12 09:04:53;;;;;;;2.23;1.57;;;;;;;;;;5014565;28;20271;-80
2023/07/12 09:07:23;;;;;;;6.93;3.13;;;;;;;;;;5015044;28;20233;-81
2023/07/12 09:09:52;;;;;;;6.43;2.57;;;;;;;;;;5022012;28;20212;-80
2023/07/12 09:12:26;;;;;;;7.93;3.23;;;;;;;;;;5015250;28;20216;-80
2023/07/12 09:14:56;;;;;;;2.07;1.97;;;;;;;;;;5011595;28;20212;-79
2023/07/12 09:17:26;;;;;;;6.30;2.57;;;;;;;;;;5017163;28;20206;-81
2023/07/12 09:19:56;;;;;;;3.07;1.40;;;;;;;;;;4999332;28;20213;-81
2023/07/12 09:22:25;;;;;;;2.73;1.80;;;;;;;;;;5024738;28;20200;-81
2023/07/12 09:24:54;;;;;;;7.90;3.27;;;;;;;;;;5022739;28;20203;-80
2023/07/12 09:27:24;;;;;;;5.93;2.50;;;;;;;;;;5017683;28;20230;-80
2023/07/12 09:30:00;;;;;;;3.33;1.73;;;;;;;;;;5014825;28;20253;-80
2023/07/12 09:32:31;;;;;;;2.10;1.90;;;;;;;;;;4988511;28;20252;-81
2023/07/12 09:35:02;;;;;;;2.23;1.47;;;;;;;;;;5002232;28;20233;-82
2023/07/12 09:37:36;;;;;;;1.60;1.10;;;;;;;;;;5002098;28;20214;-82
2023/07/12 09:40:05;;;;;;;3.13;2.00;;;;;;;;;;4997320;28;20236;-82
2023/07/12 09:42:34;;;;;;;2.03;1.67;;;;;;;;;;5001877;28;20301;-82
2023/07/12 09:45:04;;;;;;;3.53;2.27;;;;;;;;;;4994512;28;20212;-81
2023/07/12 09:47:39;;;;;;;3.30;1.73;;;;;;;;;;4997106;28;20215;-81
2023/07/12 09:50:15;;;;;;;2.33;1.80;;;;;;;;;;5006548;28;20205;-81
2023/07/12 09:52:52;;;;;;;9.10;1.10;;;;;;;;;;4994672;28;20201;-81
2023/07/12 09:55:24;;;;;;;2.30;1.50;;;;;;;;;;4996514;28;20208;-81
2023/07/12 09:57:58;;;;;;;11.40;3.53;;;;;;;;;;4990448;28;20210;-81
2023/07/12 10:00:31;;;;;;;3.10;1.70;;;;;;;;;;4998192;28;20228;-80
2023/07/12 10:03:10;;;;;;;5.83;1.47;;;;;;;;;;4994474;28;20209;-78
2023/07/12 10:05:41;;;;;;;3.03;2.73;;;;;;;;;;4995522;28;20208;-80
2023/07/12 10:08:26;;;;;;;5.80;2.47;;;;;;;;;;4999268;28;20230;-81
2023/07/12 10:10:59;;;;;;;3.57;1.87;;;;;;;;;;4989750;28;20197;-81
2023/07/12 10:13:48;;;;;;;1.63;1.53;;;;;;;;;;4986199;28;20292;-79
2023/07/12 10:16:21;;;;;;;3.80;1.97;;;;;;;;;;4994659;28;20202;-79
2023/07/12 10:18:51;;;;;;;3.53;1.70;;;;;;;;;;4994516;28;20236;-79
2023/07/12 10:21:23;;;;;;;3.07;1.97;;;;;;;;;;4977048;28;20224;-79
2023/07/12 10:23:54;;;;;;;1.83;1.40;;;;;;;;;;4994031;28;20210;-79
2023/07/12 10:26:23;;;;;;;4.87;1.90;;;;;;;;;;4994687;28;20207;-79
2023/07/12 10:28:53;;;;;;;6.13;3.10;;;;;;;;;;4994126;28;20235;-79
2023/07/12 10:31:26;;;;;;;1.73;1.00;;;;;;;;;;4993989;28;20239;-79
2023/07/12 10:34:08;;;;;;;0.80;0.80;;;;;;;;;;4994841;28;20261;-79
2023/07/12 10:36:39;;;;;;;5.93;1.67;;;;;;;;;;4994488;28;20238;-79
2023/07/12 10:39:08;;;;;;;5.37;1.80;;;;;;;;;;4994284;28;20294;-79
2023/07/12 10:41:40;;;;;;;2.73;1.47;;;;;;;;;;4994026;28;20508;-79
2023/07/12 10:44:10;;;;;;;0.57;0.57;;;;;;;;;;4994191;28;20285;-79
2023/07/12 10:46:41;;;;;;;1.80;1.27;;;;;;;;;;4994280;28;20204;-79
2023/07/12 10:49:13;;;;;;;2.37;1.47;;;;;;;;;;4993628;28;20257;-80
2023/07/12 10:51:44;;;;;;;3.40;1.13;;;;;;;;;;4994244;28;20296;-79
2023/07/12 10:54:39;;;;;;;1.70;1.17;;;;;;;;;;4977206;28;20210;-79
2023/07/12 10:57:23;;;;;;;2.87;2.20;;;;;;;;;;4993847;28;20202;-79
2023/07/12 10:59:59;;;;;;;2.73;1.60;;;;;;;;;;4994050;28;20209;-79
2023/07/12 11:02:29;;;;;;;2.23;1.83;;;;;;;;;;4994213;28;20283;-81
2023/07/12 11:04:57;;;;;;;1.10;1.00;;;;;;;;;;4994399;28;20242;-81
2023/07/12 11:07:31;;;;;;;1.53;0.93;;;;;;;;;;4995085;28;20201;-82
2023/07/12 11:10:05;;;;;;;1.70;1.23;;;;;;;;;;4995151;28;20299;-82
2023/07/12 11:12:41;;;;;;;1.30;1.17;;;;;;;;;;4995059;28;20254;-83
2023/07/12 11:15:27;;;;;;;1.17;1.03;;;;;;;;;;4994683;28;20203;-83
2023/07/12 11:18:01;;;;;;;2.27;1.17;;;;;;;;;;4995241;28;20213;-82
2023/07/12 11:20:32;;;;;;;2.60;1.10;;;;;;;;;;4995004;28;20230;-82
2023/07/12 11:23:23;;;;;;;4.17;2.00;;;;;;;;;;4993276;28;20204;-82
2023/07/12 11:25:57;;;;;;;5.63;2.00;;;;;;;;;;4994233;28;20224;-82
2023/07/12 11:28:30;;;;;;;1.27;1.20;;;;;;;;;;4993785;28;20223;-82
2023/07/12 11:31:13;;;;;;;1.77;1.23;;;;;;;;;;4993742;28;20235;-82
2023/07/12 11:33:46;;;;;;;0.97;0.97;;;;;;;;;;4994201;28;20210;-82
2023/07/12 11:36:19;;;;;;;0.93;0.93;;;;;;;;;;4994191;28;20231;-83
2023/07/12 11:38:49;;;;;;;2.27;1.30;;;;;;;;;;4994074;28;20207;-82
2023/07/12 11:41:19;;;;;;;1.37;1.27;;;;;;;;;;4993881;28;20232;-82
2023/07/12 11:43:48;;;;;;;3.83;1.27;;;;;;;;;;4993617;28;20227;-82
2023/07/12 11:46:18;;;;;;;0.73;0.70;;;;;;;;;;4994168;28;20219;-82
2023/07/12 11:48:50;;;;;;;3.47;1.57;;;;;;;;;;4993283;28;20236;-82
2023/07/12 11:51:29;;;;;;;7.10;2.60;;;;;;;;;;4994052;28;20207;-82
2023/07/12 11:53:59;;;;;;;3.43;2.47;;;;;;;;;;4993985;28;20212;-83
2023/07/12 11:56:28;;;;;;;3.83;1.83;;;;;;;;;;4993765;28;20209;-82
2023/07/12 11:58:56;;;;;;;0.90;0.90;;;;;;;;;;4993160;28;20202;-82
2023/07/12 12:01:25;;;;;;;3.30;1.57;;;;;;;;;;4993852;28;20259;-82
2023/07/12 12:03:54;;;;;;;2.93;0.70;;;;;;;;;;4993539;28;20291;-82
2023/07/12 12:06:24;;;;;;;4.60;2.63;;;;;;;;;;4993097;28;20206;-82
2023/07/12 12:08:55;;;;;;;2.53;1.90;;;;;;;;;;4992731;28;20233;-82
2023/07/12 12:11:27;;;;;;;4.30;1.47;;;;;;;;;;4993075;28;20205;-82
2023/07/12 12:13:55;;;;;;;1.73;1.33;;;;;;;;;;4992841;28;20230;-82
2023/07/12 12:16:28;;;;;;;5.37;2.50;;;;;;;;;;4992597;28;20216;-82
2023/07/12 12:18:58;;;;;;;0.80;0.80;;;;;;;;;;4992758;28;20206;-82
2023/07/12 12:21:28;;;;;;;2.27;0.93;;;;;;;;;;4992807;28;20218;-82
2023/07/12 12:23:58;;;;;;;1.27;1.00;;;;;;;;;;4992469;28;20245;-82
2023/07/12 12:26:32;;;;;;;3.23;1.83;;;;;;;;;;4992955;28;20212;-82
2023/07/12 12:29:01;;;;;;;3.70;1.63;;;;;;;;;;4992719;28;20266;-82
2023/07/12 12:31:31;;;;;;;1.97;1.77;;;;;;;;;;4992360;28;20299;-82
2023/07/12 12:34:03;;;;;;;1.30;0.83;;;;;;;;;;4992420;28;20208;-82
2023/07/12 12:36:33;;;;;;;4.03;2.10;;;;;;;;;;4992998;28;20268;-82
2023/07/12 12:39:05;;;;;;;2.70;2.00;;;;;;;;;;4992604;28;20202;-82
2023/07/12 12:41:39;;;;;;;4.10;1.93;;;;;;;;;;4992190;28;20228;-82
2023/07/12 12:44:16;;;;;;;5.90;1.50;;;;;;;;;;4992727;28;20200;-82
2023/07/12 12:46:45;;;;;;;2.70;1.90;;;;;;;;;;4993187;28;20203;-82
2023/07/12 12:49:18;;;;;;;2.30;1.60;;;;;;;;;;4992678;28;20208;-83
2023/07/12 12:51:53;;;;;;;5.10;1.60;;;;;;;;;;4992723;28;20196;-82
2023/07/12 12:54:25;;;;;;;2.60;2.10;;;;;;;;;;4992656;28;20203;-82
2023/07/12 12:56:55;;;;;;;3.90;2.43;;;;;;;;;;4992894;28;20205;-82
2023/07/12 12:59:44;;;;;;;2.03;1.93;;;;;;;;;;4991875;28;20203;-82
2023/07/12 13:02:35;;;;;;;2.13;1.63;;;;;;;;;;4992787;28;20223;-82
2023/07/12 13:05:07;;;;;;;4.77;2.43;;;;;;;;;;4992456;28;20343;-82
2023/07/12 13:07:41;;;;;;;0.90;0.90;;;;;;;;;;4993543;28;20213;-81
2023/07/12 13:10:35;;;;;;;2.77;1.87;;;;;;;;;;5009624;28;20299;-82
2023/07/12 13:13:14;;;;;;;1.40;1.30;;;;;;;;;;5011654;28;20196;-81
2023/07/12 13:15:48;;;;;;;4.07;1.40;;;;;;;;;;5011490;28;20207;-82
2023/07/12 13:18:24;;;;;;;2.87;1.57;;;;;;;;;;5011722;28;20210;-82
2023/07/12 13:21:17;;;;;;;3.97;1.70;;;;;;;;;;5011298;28;20296;-82
2023/07/12 13:23:46;;;;;;;8.80;2.70;;;;;;;;;;5011308;28;20224;-82
2023/07/12 13:26:16;;;;;;;2.03;1.40;;;;;;;;;;5011483;28;20207;-82
2023/07/12 13:28:46;;;;;;;1.00;1.00;;;;;;;;;;5011750;28;20229;-82
2023/07/12 13:31:19;;;;;;;1.70;1.60;;;;;;;;;;5011283;28;20231;-83
2023/07/12 13:33:48;;;;;;;1.83;1.70;;;;;;;;;;5011407;28;20197;-82
2023/07/12 13:36:27;;;;;;;9.80;2.67;;;;;;;;;;5012215;28;20198;-82
2023/07/12 13:38:58;;;;;;;1.30;1.20;;;;;;;;;;5011975;28;20206;-82
2023/07/12 13:41:30;;;;;;;3.80;2.70;;;;;;;;;;5011861;28;20208;-82
2023/07/12 13:44:02;;;;;;;4.20;1.73;;;;;;;;;;5011944;28;20220;-82
2023/07/12 13:46:34;;;;;;;2.77;1.10;;;;;;;;;;5014931;28;20202;-82
2023/07/12 13:49:03;;;;;;;2.37;1.13;;;;;;;;;;5015523;28;20209;-82
2023/07/12 13:51:32;;;;;;;1.80;1.43;;;;;;;;;;5015442;28;20199;-82
2023/07/12 13:54:01;;;;;;;3.30;2.50;;;;;;;;;;5015851;28;20205;-81
2023/07/12 13:56:33;;;;;;;2.50;1.70;;;;;;;;;;5016019;28;20207;-82
2023/07/12 13:59:06;;;;;;;3.60;1.60;;;;;;;;;;5015517;28;20227;-82
2023/07/12 14:01:38;;;;;;;1.87;1.67;;;;;;;;;;5015303;28;20203;-82
2023/07/12 14:04:14;;;;;;;2.67;1.73;;;;;;;;;;5015430;28;20226;-82
2023/07/12 14:06:46;;;;;;;1.73;1.63;;;;;;;;;;5015448;28;20206;-82
2023/07/12 14:09:18;;;;;;;4.83;2.40;;;;;;;;;;5015301;28;20199;-82
2023/07/12 14:11:48;;;;;;;2.50;2.17;;;;;;;;;;5014593;28;20207;-82
2023/07/12 14:14:20;;;;;;;2.53;1.73;;;;;;;;;;5014367;28;20199;-82
2023/07/12 14:16:49;;;;;;;1.80;1.50;;;;;;;;;;5013922;28;20206;-82
2023/07/12 14:19:26;;;;;;;3.17;1.77;;;;;;;;;;5014544;28;20227;-82
2023/07/12 14:22:09;;;;;;;0.80;0.80;;;;;;;;;;5014456;28;20347;-82
2023/07/12 14:24:39;;;;;;;1.87;1.67;;;;;;;;;;5014023;28;20194;-82
2023/07/12 14:27:15;;;;;;;4.93;2.60;;;;;;;;;;5014360;28;20231;-82
2023/07/12 14:29:46;;;;;;;4.77;2.30;;;;;;;;;;5014339;28;20242;-82
2023/07/12 14:32:20;;;;;;;4.33;1.70;;;;;;;;;;4999339;28;20247;-83
2023/07/12 14:34:49;;;;;;;6.60;3.53;;;;;;;;;;4994283;28;20225;-82
2023/07/12 14:37:23;;;;;;;0.80;0.80;;;;;;;;;;4995243;28;20218;-83
2023/07/12 14:39:55;;;;;;;2.57;2.00;;;;;;;;;;4994706;28;20223;-83
2023/07/12 14:42:24;;;;;;;5.47;2.00;;;;;;;;;;4993769;28;20269;-80
2023/07/12 14:44:55;;;;;;;3.40;2.60;;;;;;;;;;4994149;28;20193;-81
2023/07/12 14:47:25;;;;;;;1.43;0.97;;;;;;;;;;4994606;28;20199;-81
2023/07/12 14:49:56;;;;;;;2.73;2.30;;;;;;;;;;4994268;28;20207;-81
2023/07/12 14:52:28;;;;;;;5.10;2.40;;;;;;;;;;4994252;28;20210;-80
2023/07/12 14:54:57;;;;;;;3.23;1.93;;;;;;;;;;4994409;28;20207;-81
2023/07/12 14:57:26;;;;;;;3.63;1.97;;;;;;;;;;4992898;28;20273;-81
2023/07/12 15:00:20;;;;;;;2.33;1.10;;;;;;;;;;4993641;28;20210;-80
2023/07/12 15:02:54;;;;;;;3.13;2.13;;;;;;;;;;4993890;28;20223;-81
2023/07/12 15:05:24;;;;;;;2.40;1.97;;;;;;;;;;4993867;28;20214;-81